Time;durP1;ratioP1;P1;durP2;ratioP2;P2;SDS_P1;SDS_P2;PMS_P1;PMS_P2;Temp;Humidity;BMP_temperature;BMP_pressure;BME280_temperature;BME280_humidity;BME280_pressure;Samples;Min_cycle;Max_cycle;Signal;HPM_P1;HPM_P2
2022/04/17 00:01:30;;;;;;;24.50;11.50;;;2.40;99.90;;;;;;5036225;28;20041;-67
2022/04/17 00:03:55;;;;;;;22.70;11.88;;;2.50;99.90;;;;;;5035831;28;20021;-67
2022/04/17 00:06:21;;;;;;;23.67;12.20;;;2.70;99.90;;;;;;5035465;28;20477;-67
2022/04/17 00:08:46;;;;;;;17.88;10.52;;;2.80;99.90;;;;;;5035457;28;20393;-67
2022/04/17 00:11:12;;;;;;;19.85;11.02;;;3.00;99.90;;;;;;5035653;28;20172;-67
2022/04/17 00:13:38;;;;;;;16.60;10.27;;;3.10;99.90;;;;;;5035537;28;20021;-67
2022/04/17 00:16:03;;;;;;;16.85;10.35;;;3.00;99.90;;;;;;5035176;28;20030;-67
2022/04/17 00:18:29;;;;;;;19.38;10.88;;;2.90;99.90;;;;;;5035048;28;20060;-67
2022/04/17 00:20:55;;;;;;;16.33;10.05;;;2.80;99.90;;;;;;5035819;28;20458;-67
2022/04/17 00:23:20;;;;;;;19.52;10.98;;;2.60;99.90;;;;;;5035174;28;20417;-67
2022/04/17 00:25:46;;;;;;;19.30;10.35;;;2.50;99.90;;;;;;5035025;28;20036;-67
2022/04/17 00:28:11;;;;;;;16.05;10.10;;;2.40;99.90;;;;;;5035083;28;20025;-67
2022/04/17 00:30:37;;;;;;;19.73;10.55;;;2.30;99.90;;;;;;5035037;28;20072;-67
2022/04/17 00:33:02;;;;;;;19.13;10.63;;;2.20;99.90;;;;;;5034901;28;20112;-67
2022/04/17 00:35:28;;;;;;;17.63;9.82;;;2.10;99.90;;;;;;5033765;28;20018;-67
2022/04/17 00:37:54;;;;;;;20.48;11.43;;;2.00;99.90;;;;;;5034820;28;20084;-67
2022/04/17 00:40:19;;;;;;;20.63;10.02;;;1.90;99.90;;;;;;5034996;28;20032;-67
2022/04/17 00:42:45;;;;;;;18.52;10.40;;;1.80;99.90;;;;;;5034785;28;20032;-67
2022/04/17 00:45:11;;;;;;;19.45;10.10;;;1.70;99.90;;;;;;5035326;28;20405;-66
2022/04/17 00:47:36;;;;;;;20.05;10.57;;;1.60;99.90;;;;;;5034903;28;20047;-67
2022/04/17 00:50:04;;;;;;;16.75;10.05;;;1.50;99.90;;;;;;5034659;28;20053;-67
2022/04/17 00:52:30;;;;;;;17.83;9.93;;;1.50;99.90;;;;;;5034807;28;20025;-67
2022/04/17 00:54:56;;;;;;;15.10;8.88;;;1.40;99.90;;;;;;5035018;28;20030;-67
2022/04/17 00:57:22;;;;;;;19.38;10.30;;;1.30;99.90;;;;;;5034454;28;20036;-67
2022/04/17 00:59:51;;;;;;;18.02;10.02;;;1.20;99.90;;;;;;5034482;28;20105;-67
2022/04/17 01:02:17;;;;;;;16.77;10.23;;;1.20;99.90;;;;;;5034738;28;20108;-67
2022/04/17 01:04:43;;;;;;;17.88;10.57;;;1.10;99.90;;;;;;5034303;28;20068;-67
2022/04/17 01:07:12;;;;;;;20.25;9.65;;;1.00;99.90;;;;;;5034359;28;20026;-67
2022/04/17 01:09:39;;;;;;;18.15;10.50;;;0.90;99.90;;;;;;5033125;28;20030;-66
2022/04/17 01:12:08;;;;;;;22.08;12.20;;;0.90;99.90;;;;;;5034232;28;20051;-66
2022/04/17 01:14:39;;;;;;;18.38;10.48;;;0.90;99.90;;;;;;5034090;28;20481;-67
2022/04/17 01:17:05;;;;;;;19.30;10.73;;;0.90;99.90;;;;;;5034196;28;20032;-67
2022/04/17 01:19:39;;;;;;;19.70;11.38;;;0.90;99.90;;;;;;5034154;28;20017;-67
2022/04/17 01:22:10;;;;;;;18.73;11.20;;;0.90;99.90;;;;;;5034688;28;20028;-67
2022/04/17 01:27:21;;;;;;;16.27;11.07;;;0.80;99.90;;;;;;5034207;28;20033;-67
2022/04/17 01:29:48;;;;;;;20.10;11.70;;;0.80;99.90;;;;;;5033878;28;20033;-67
2022/04/17 01:32:14;;;;;;;24.67;12.27;;;0.70;99.90;;;;;;5033922;28;20477;-67
2022/04/17 01:34:40;;;;;;;19.83;11.90;;;0.70;99.90;;;;;;5033859;28;20024;-66
2022/04/17 01:37:05;;;;;;;22.20;11.82;;;0.70;99.90;;;;;;5033618;28;20022;-67
2022/04/17 01:39:31;;;;;;;16.58;11.20;;;0.70;99.90;;;;;;5033804;28;20052;-67
2022/04/17 01:41:58;;;;;;;16.65;10.77;;;0.70;99.90;;;;;;5033877;28;20033;-67
2022/04/17 01:44:25;;;;;;;18.42;11.68;;;0.60;99.90;;;;;;5033731;28;20105;-67
2022/04/17 01:46:52;;;;;;;17.60;11.10;;;0.50;99.90;;;;;;5033444;28;20539;-67
2022/04/17 01:49:18;;;;;;;18.42;11.02;;;0.50;99.90;;;;;;5033647;28;20096;-67
2022/04/17 01:51:45;;;;;;;17.05;11.30;;;0.40;99.90;;;;;;5034225;28;20025;-67
2022/04/17 01:54:13;;;;;;;19.33;11.95;;;0.40;99.90;;;;;;5033817;28;20049;-67
2022/04/17 01:56:40;;;;;;;17.48;11.75;;;0.40;99.90;;;;;;5033671;28;20034;-67
2022/04/17 01:59:06;;;;;;;19.25;12.23;;;0.30;99.90;;;;;;5033822;28;20087;-67
2022/04/17 02:01:33;;;;;;;17.23;11.00;;;0.30;99.90;;;;;;5033428;28;20033;-67
2022/04/17 02:03:59;;;;;;;19.02;10.43;;;0.20;99.90;;;;;;5033512;28;20025;-67
2022/04/17 02:06:25;;;;;;;17.67;10.88;;;0.20;99.90;;;;;;5033460;28;20040;-67
2022/04/17 02:08:51;;;;;;;21.45;11.60;;;0.10;99.90;;;;;;5033382;28;20033;-67
2022/04/17 02:11:18;;;;;;;23.40;10.95;;;0.10;99.90;;;;;;5033506;28;20022;-67
2022/04/17 02:13:43;;;;;;;20.30;11.45;;;0.10;99.90;;;;;;5037738;28;20026;-67
2022/04/17 02:16:09;;;;;;;19.27;11.73;;;0.10;99.90;;;;;;5037957;28;20052;-67
2022/04/17 02:18:34;;;;;;;19.15;12.60;;;0.10;99.90;;;;;;5038421;28;20017;-67
2022/04/17 02:21:01;;;;;;;22.38;12.65;;;0.10;99.90;;;;;;5037799;28;20454;-67
2022/04/17 02:23:26;;;;;;;17.45;11.18;;;0.10;99.90;;;;;;5037369;28;20024;-67
2022/04/17 02:25:52;;;;;;;21.58;11.40;;;0.10;99.90;;;;;;5037324;28;20017;-67
2022/04/17 02:28:18;;;;;;;16.80;10.88;;;0.10;99.90;;;;;;5037867;28;20026;-67
2022/04/17 02:30:43;;;;;;;19.17;12.05;;;0.10;99.90;;;;;;5037262;28;20509;-67
2022/04/17 02:33:10;;;;;;;19.73;11.65;;;0.10;99.90;;;;;;5037477;28;20034;-67
2022/04/17 02:35:36;;;;;;;28.10;14.15;;;0.10;99.90;;;;;;5036874;28;20017;-67
2022/04/17 02:38:02;;;;;;;23.67;13.63;;;0.10;99.90;;;;;;5037313;28;20029;-67
2022/04/17 02:40:28;;;;;;;21.33;12.98;;;0.20;99.90;;;;;;5037248;28;20397;-67
2022/04/17 02:42:53;;;;;;;20.48;14.00;;;0.20;99.90;;;;;;5035839;28;20064;-66
2022/04/17 02:45:20;;;;;;;21.02;12.68;;;0.20;99.90;;;;;;5037346;28;20438;-66
2022/04/17 02:47:46;;;;;;;18.05;11.75;;;0.10;99.90;;;;;;5037505;28;20036;-67
2022/04/17 02:50:17;;;;;;;18.33;12.32;;;0.10;99.90;;;;;;5036970;28;20072;-66
2022/04/17 02:52:43;;;;;;;22.42;13.38;;;0.00;99.90;;;;;;5037086;28;20029;-66
2022/04/17 02:55:10;;;;;;;19.67;12.55;;;0.00;99.90;;;;;;5036898;28;20099;-66
2022/04/17 02:57:36;;;;;;;22.67;13.32;;;-0.10;99.90;;;;;;5036850;28;20043;-67
2022/04/17 03:00:03;;;;;;;21.20;12.40;;;-0.10;99.90;;;;;;5036710;28;20478;-67
2022/04/17 03:07:58;;;;;;;22.92;12.63;;;-0.20;99.90;;;;;;5037069;28;20036;-67
2022/04/17 03:10:25;;;;;;;21.52;13.18;;;-0.30;99.90;;;;;;5036518;28;20026;-66
2022/04/17 03:12:50;;;;;;;21.55;12.55;;;-0.30;99.90;;;;;;5036554;28;20112;-67
2022/04/17 03:15:16;;;;;;;22.10;13.40;;;-0.30;99.90;;;;;;5036561;28;20466;-67
2022/04/17 03:17:41;;;;;;;21.75;14.27;;;-0.30;99.90;;;;;;5036712;28;20021;-67
2022/04/17 03:20:08;;;;;;;22.42;14.07;;;-0.40;99.90;;;;;;5035769;28;20034;-67
2022/04/17 03:22:33;;;;;;;24.42;13.20;;;-0.40;99.90;;;;;;5036142;28;20041;-67
2022/04/17 03:25:06;;;;;;;24.65;13.68;;;-0.40;99.90;;;;;;5034071;28;20022;-67
2022/04/17 03:27:32;;;;;;;25.40;14.35;;;-0.50;99.90;;;;;;5025737;28;20524;-67
2022/04/17 03:29:58;;;;;;;23.90;14.35;;;-0.50;99.90;;;;;;5029595;28;20059;-67
2022/04/17 03:32:24;;;;;;;22.73;13.27;;;-0.50;99.90;;;;;;5026795;28;20478;-67
2022/04/17 03:34:49;;;;;;;27.40;15.40;;;-0.50;99.90;;;;;;5033914;28;20052;-67
2022/04/17 03:37:15;;;;;;;24.42;14.27;;;-0.50;99.90;;;;;;5023258;28;20018;-67
2022/04/17 03:39:42;;;;;;;26.77;13.82;;;-0.60;99.90;;;;;;5016315;28;20080;-67
2022/04/17 03:42:08;;;;;;;26.67;15.48;;;-0.60;99.90;;;;;;5016208;28;20486;-67
2022/04/17 03:44:34;;;;;;;25.33;14.02;;;-0.60;99.90;;;;;;5016203;28;20113;-67
2022/04/17 03:47:00;;;;;;;29.88;15.02;;;-0.60;99.90;;;;;;5016077;28;20597;-67
2022/04/17 03:49:26;;;;;;;22.67;15.18;;;-0.70;99.90;;;;;;5016050;28;20076;-66
2022/04/17 03:51:52;;;;;;;21.15;14.35;;;-0.70;99.90;;;;;;5016364;28;20101;-66
2022/04/17 03:54:18;;;;;;;26.33;15.38;;;-0.70;99.90;;;;;;5015874;28;20481;-66
2022/04/17 03:56:46;;;;;;;23.73;14.75;;;-0.70;99.90;;;;;;5016176;28;20108;-66
2022/04/17 03:59:12;;;;;;;25.55;15.15;;;-0.70;99.90;;;;;;5015922;28;20168;-66
2022/04/17 04:01:37;;;;;;;23.27;14.20;;;-0.70;99.90;;;;;;5016177;28;20097;-66
2022/04/17 04:04:04;;;;;;;28.50;14.85;;;-0.70;99.90;;;;;;5015856;28;20057;-66
2022/04/17 04:06:29;;;;;;;24.02;15.13;;;-0.70;99.90;;;;;;5015708;28;20262;-67
2022/04/17 04:08:55;;;;;;;21.55;14.48;;;-0.70;99.90;;;;;;5015892;28;20049;-67
2022/04/17 04:11:20;;;;;;;24.80;15.63;;;-0.70;99.90;;;;;;5016177;28;20057;-66
2022/04/17 04:13:46;;;;;;;30.42;16.50;;;-0.70;99.90;;;;;;5015765;28;20024;-67
2022/04/17 04:16:11;;;;;;;26.30;15.32;;;-0.70;99.90;;;;;;5015481;28;20018;-67
2022/04/17 04:18:37;;;;;;;25.30;15.00;;;-0.70;99.90;;;;;;5015546;28;20437;-67
2022/04/17 04:21:03;;;;;;;25.52;14.55;;;-0.70;99.90;;;;;;5015478;28;20474;-67
2022/04/17 04:23:35;;;;;;;22.67;14.93;;;-0.70;99.90;;;;;;5015329;28;20022;-66
2022/04/17 04:26:01;;;;;;;23.40;15.48;;;-0.70;99.90;;;;;;5015283;28;20033;-67
2022/04/17 04:28:33;;;;;;;21.48;14.57;;;-0.70;99.90;;;;;;5015878;28;20030;-67
2022/04/17 04:31:16;;;;;;;24.25;15.65;;;-0.70;99.90;;;;;;5015445;28;20125;-66
2022/04/17 04:33:43;;;;;;;23.40;14.65;;;-0.70;99.90;;;;;;5016181;28;20409;-66
2022/04/17 04:36:13;;;;;;;29.17;15.75;;;-0.70;99.90;;;;;;5014918;28;20030;-67
2022/04/17 04:38:39;;;;;;;28.23;16.45;;;-0.70;99.90;;;;;;5015501;28;20110;-67
2022/04/17 04:41:05;;;;;;;27.17;16.08;;;-0.70;99.90;;;;;;5015645;28;20025;-67
2022/04/17 04:43:31;;;;;;;24.95;14.68;;;-0.70;99.90;;;;;;5014969;28;20026;-67
2022/04/17 04:46:06;;;;;;;25.55;14.02;;;-0.70;99.90;;;;;;5015324;28;20026;-67
2022/04/17 04:51:17;;;;;;;27.08;16.05;;;-0.60;99.90;;;;;;5015036;28;20033;-67
2022/04/17 04:53:43;;;;;;;23.42;15.95;;;-0.60;99.90;;;;;;5014819;28;20025;-67
2022/04/17 04:56:08;;;;;;;22.45;14.80;;;-0.50;99.90;;;;;;5015006;28;20525;-67
2022/04/17 04:58:34;;;;;;;21.63;14.02;;;-0.50;99.90;;;;;;5015104;28;20386;-67
2022/04/17 05:01:00;;;;;;;27.40;15.73;;;-0.40;99.90;;;;;;5014753;28;20026;-67
2022/04/17 05:03:26;;;;;;;24.92;16.08;;;-0.30;99.90;;;;;;5014692;28;20372;-67
2022/04/17 05:05:52;;;;;;;28.63;15.50;;;-0.30;99.90;;;;;;5014832;28;20025;-67
2022/04/17 05:08:20;;;;;;;28.90;17.80;;;-0.20;99.90;;;;;;5014567;28;20509;-66
2022/04/17 05:10:47;;;;;;;26.83;16.10;;;-0.10;99.90;;;;;;5014952;28;20026;-66
2022/04/17 05:13:12;;;;;;;25.17;15.55;;;-0.10;99.90;;;;;;5014503;28;20123;-66
2022/04/17 05:15:38;;;;;;;25.50;15.63;;;0.10;99.90;;;;;;5014310;28;20022;-67
2022/04/17 05:18:04;;;;;;;26.75;15.75;;;0.10;99.90;;;;;;5014496;28;20026;-67
2022/04/17 05:20:35;;;;;;;24.50;16.48;;;0.20;99.90;;;;;;5015286;28;20029;-66
2022/04/17 05:23:29;;;;;;;26.85;16.38;;;0.30;99.90;;;;;;5013172;28;20076;-67
2022/04/17 05:25:56;;;;;;;25.25;15.43;;;0.40;99.90;;;;;;5014381;28;20037;-67
2022/04/17 05:28:22;;;;;;;24.33;15.38;;;0.50;99.90;;;;;;5014513;28;20038;-67
2022/04/17 05:30:48;;;;;;;22.67;15.45;;;0.60;99.90;;;;;;5014287;28;20057;-66
2022/04/17 05:33:17;;;;;;;26.75;15.90;;;0.70;99.90;;;;;;5014766;28;20419;-66
2022/04/17 05:35:43;;;;;;;25.77;15.90;;;0.80;99.90;;;;;;5014206;28;20139;-67
2022/04/17 05:38:08;;;;;;;25.33;16.30;;;0.90;99.90;;;;;;5019495;28;20053;-67
2022/04/17 05:40:46;;;;;;;29.23;16.90;;;1.00;99.90;;;;;;5027415;28;20100;-67
2022/04/17 05:43:13;;;;;;;27.67;17.63;;;1.10;99.90;;;;;;5027951;28;20109;-67
2022/04/17 05:45:39;;;;;;;28.33;17.05;;;1.20;99.90;;;;;;5033236;28;20065;-67
2022/04/17 05:48:11;;;;;;;24.63;15.07;;;1.30;99.90;;;;;;5027409;28;20382;-67
2022/04/17 05:50:38;;;;;;;24.58;15.40;;;1.30;99.90;;;;;;5030375;28;20078;-68
2022/04/17 05:53:04;;;;;;;27.63;16.73;;;1.40;99.90;;;;;;5030327;28;20519;-67
2022/04/17 05:55:30;;;;;;;25.75;16.45;;;1.40;99.90;;;;;;5025248;28;20029;-67
2022/04/17 05:57:55;;;;;;;28.52;17.05;;;1.50;99.90;;;;;;5030974;28;20026;-67
2022/04/17 06:00:21;;;;;;;26.02;16.45;;;1.50;99.90;;;;;;5021764;28;20033;-67
2022/04/17 06:02:47;;;;;;;25.77;17.00;;;1.50;99.90;;;;;;5014201;28;20105;-67
2022/04/17 06:05:14;;;;;;;24.08;16.00;;;1.60;99.90;;;;;;5013865;28;20065;-67
2022/04/17 06:07:40;;;;;;;27.50;15.43;;;1.70;99.90;;;;;;5022124;28;20037;-67
2022/04/17 06:10:07;;;;;;;26.80;16.60;;;1.80;99.90;;;;;;5030608;28;20022;-67
2022/04/17 06:12:34;;;;;;;28.50;16.92;;;1.90;99.90;;;;;;5033018;28;20056;-67
2022/04/17 06:15:00;;;;;;;25.50;17.58;;;2.10;99.90;;;;;;5030452;28;20021;-67
2022/04/17 06:17:25;;;;;;;29.50;18.50;;;2.40;99.90;;;;;;5020082;28;20087;-67
2022/04/17 06:19:51;;;;;;;28.02;18.70;;;2.70;99.90;;;;;;5022844;28;20024;-67
2022/04/17 06:22:18;;;;;;;27.33;17.65;;;3.00;99.90;;;;;;5033627;28;20025;-67
2022/04/17 06:24:44;;;;;;;31.33;18.90;;;3.30;99.90;;;;;;5024023;28;20028;-67
2022/04/17 06:27:09;;;;;;;29.85;18.10;;;3.60;99.90;;;;;;5022243;28;20410;-67
2022/04/17 06:29:35;;;;;;;35.10;19.05;;;4.00;99.90;;;;;;5024780;28;20033;-67
2022/04/17 06:32:01;;;;;;;25.70;17.67;;;4.30;99.90;;;;;;5027053;28;20423;-67
2022/04/17 06:34:26;;;;;;;28.05;17.75;;;4.50;99.90;;;;;;5027032;28;20100;-67
2022/04/17 06:36:52;;;;;;;25.40;17.00;;;4.80;99.90;;;;;;5027668;28;20021;-67
2022/04/17 06:39:17;;;;;;;31.33;15.60;;;5.00;99.90;;;;;;5029578;28;20149;-69
2022/04/17 06:41:44;;;;;;;27.13;16.33;;;5.10;99.90;;;;;;5032115;28;20528;-67
2022/04/17 06:44:11;;;;;;;29.63;15.05;;;5.10;99.90;;;;;;5020180;28;20033;-67
2022/04/17 06:46:38;;;;;;;23.25;14.63;;;5.20;99.90;;;;;;5023000;28;20381;-67
2022/04/17 06:49:04;;;;;;;22.63;14.30;;;5.30;99.90;;;;;;5030001;28;20079;-67
2022/04/17 06:51:29;;;;;;;21.98;14.98;;;5.30;99.90;;;;;;5031040;28;20029;-67
2022/04/17 06:53:54;;;;;;;26.33;15.57;;;5.30;99.90;;;;;;5043359;28;20060;-67
2022/04/17 06:56:20;;;;;;;23.02;14.27;;;5.40;99.90;;;;;;5023616;28;20050;-67
2022/04/17 06:58:47;;;;;;;28.65;16.02;;;5.50;99.90;;;;;;5031755;28;20123;-67
2022/04/17 07:01:14;;;;;;;27.35;16.33;;;5.60;99.90;;;;;;5025072;28;20097;-67
2022/04/17 07:03:40;;;;;;;27.90;16.67;;;5.80;99.90;;;;;;5034181;28;20388;-68
2022/04/17 07:06:06;;;;;;;24.40;16.42;;;6.10;99.90;;;;;;5033453;28;20064;-68
2022/04/17 07:08:32;;;;;;;28.95;14.68;;;6.40;99.90;;;;;;5032811;28;20413;-68
2022/04/17 07:10:57;;;;;;;31.35;15.52;;;6.60;99.90;;;;;;5030507;28;20347;-68
2022/04/17 07:13:24;;;;;;;22.75;14.35;;;6.90;99.90;;;;;;5035966;28;20085;-68
2022/04/17 07:15:50;;;;;;;23.00;13.25;;;7.20;99.90;;;;;;5027206;28;20152;-68
2022/04/17 07:18:16;;;;;;;25.55;12.75;;;7.50;99.90;;;;;;5016437;28;20042;-68
2022/04/17 07:20:41;;;;;;;23.38;13.40;;;7.80;99.90;;;;;;5021745;28;20100;-68
2022/04/17 07:23:07;;;;;;;23.20;13.93;;;8.00;99.90;;;;;;5025955;28;20033;-68
2022/04/17 07:25:33;;;;;;;20.80;12.68;;;8.30;99.90;;;;;;5035078;28;20382;-68
2022/04/17 07:27:58;;;;;;;20.88;12.57;;;8.50;99.90;;;;;;5035457;28;20025;-67
2022/04/17 07:30:33;;;;;;;22.85;12.18;;;8.70;99.90;;;;;;5023956;28;20075;-68
2022/04/17 07:33:00;;;;;;;20.45;11.02;;;8.90;99.90;;;;;;5036188;28;20057;-67
2022/04/17 07:35:28;;;;;;;20.75;11.93;;;9.10;99.90;;;;;;5032225;28;20029;-68
2022/04/17 07:38:01;;;;;;;24.92;11.40;;;9.30;99.90;;;;;;5016323;28;20026;-67
2022/04/17 07:40:30;;;;;;;16.42;10.70;;;9.50;99.90;;;;;;5016356;28;20061;-67
2022/04/17 07:42:58;;;;;;;22.17;11.35;;;9.60;99.90;;;;;;5016012;28;20034;-67
2022/04/17 07:45:24;;;;;;;17.85;10.73;;;9.70;99.90;;;;;;5018636;28;20493;-67
2022/04/17 07:47:50;;;;;;;17.50;9.38;;;9.80;99.90;;;;;;5030175;28;20505;-67
2022/04/17 07:50:18;;;;;;;16.05;9.50;;;9.80;99.90;;;;;;5016126;28;20536;-67
2022/04/17 07:52:45;;;;;;;25.50;10.70;;;9.90;99.90;;;;;;5028835;28;20060;-68
2022/04/17 07:55:12;;;;;;;18.10;10.30;;;10.10;99.90;;;;;;5035153;28;20470;-68
2022/04/17 08:00:24;;;;;;;14.90;9.68;;;10.50;99.90;;;;;;5016071;28;20033;-67
2022/04/17 08:02:55;;;;;;;13.82;8.63;;;10.50;99.90;;;;;;5015306;28;20518;-68
2022/04/17 08:05:24;;;;;;;11.30;8.50;;;10.80;99.90;;;;;;5018715;28;20582;-68
2022/04/17 08:07:51;;;;;;;11.82;7.97;;;10.90;99.90;;;;;;5035068;28;20100;-68
2022/04/17 08:10:17;;;;;;;12.57;8.27;;;11.10;99.90;;;;;;5022404;28;20101;-67
2022/04/17 08:12:43;;;;;;;12.05;7.28;;;11.20;99.90;;;;;;5015387;28;20105;-68
2022/04/17 08:15:09;;;;;;;15.52;7.95;;;11.20;99.90;;;;;;5025019;28;20045;-67
2022/04/17 08:17:35;;;;;;;13.52;7.68;;;11.30;99.90;;;;;;5034999;28;20425;-67
2022/04/17 08:20:00;;;;;;;12.13;7.28;;;11.40;99.90;;;;;;5035149;28;20029;-68
2022/04/17 08:22:26;;;;;;;13.27;7.90;;;11.60;99.90;;;;;;5030957;28;20105;-68
2022/04/17 08:24:51;;;;;;;11.38;7.20;;;11.70;99.90;;;;;;5015331;28;20022;-67
2022/04/17 08:27:17;;;;;;;15.77;8.25;;;11.80;99.90;;;;;;5014691;28;20062;-67
2022/04/17 08:29:42;;;;;;;11.25;7.30;;;11.80;99.90;;;;;;5015173;28;20029;-68
2022/04/17 08:32:09;;;;;;;11.73;6.85;;;12.10;99.90;;;;;;5016432;28;20051;-69
2022/04/17 08:34:34;;;;;;;11.98;8.02;;;12.30;99.90;;;;;;5034774;28;20025;-68
2022/04/17 08:37:00;;;;;;;10.82;7.18;;;12.30;99.90;;;;;;5017238;28;20041;-68
2022/04/17 08:39:26;;;;;;;15.88;8.18;;;12.40;99.90;;;;;;5014226;28;20030;-68
2022/04/17 08:41:54;;;;;;;15.85;7.95;;;12.50;99.90;;;;;;5015047;28;20466;-68
2022/04/17 08:44:21;;;;;;;12.75;7.95;;;12.50;99.90;;;;;;5015167;28;20029;-68
2022/04/17 08:46:47;;;;;;;10.73;6.80;;;12.70;99.90;;;;;;5023663;28;20033;-68
2022/04/17 08:49:13;;;;;;;14.38;6.75;;;12.70;99.90;;;;;;5020718;28;20052;-67
2022/04/17 08:51:39;;;;;;;13.57;8.10;;;12.80;99.90;;;;;;5033785;28;20053;-68
2022/04/17 08:54:06;;;;;;;13.35;6.63;;;13.00;99.90;;;;;;5022119;28;20026;-67
2022/04/17 08:56:32;;;;;;;11.05;6.10;;;13.00;99.90;;;;;;5014674;28;20025;-68
2022/04/17 08:58:58;;;;;;;12.27;6.32;;;13.20;99.90;;;;;;5014821;28;20521;-67
2022/04/17 09:01:24;;;;;;;9.88;5.97;;;13.40;99.90;;;;;;5029682;28;20025;-68
2022/04/17 09:03:50;;;;;;;11.82;5.68;;;13.50;99.90;;;;;;5033525;28;20040;-68
2022/04/17 09:06:19;;;;;;;9.43;5.95;;;13.70;99.90;;;;;;5033960;28;20497;-67
2022/04/17 09:09:05;;;;;;;10.05;5.20;;;13.90;99.90;;;;;;5034153;28;20505;-68
2022/04/17 09:11:32;;;;;;;9.95;5.45;;;14.00;99.90;;;;;;5033934;28;20037;-68
2022/04/17 09:14:03;;;;;;;9.77;5.88;;;13.90;99.90;;;;;;5033972;28;20029;-67
2022/04/17 09:16:35;;;;;;;7.07;5.53;;;13.80;99.90;;;;;;5028495;28;20017;-67
2022/04/17 09:19:13;;;;;;;11.80;5.53;;;13.80;99.90;;;;;;5024303;28;20032;-67
2022/04/17 09:21:39;;;;;;;9.82;6.00;;;14.10;99.90;;;;;;5030525;28;20025;-68
2022/04/17 09:24:19;;;;;;;9.38;5.43;;;14.10;99.90;;;;;;5031322;28;20540;-68
2022/04/17 09:26:48;;;;;;;8.07;5.03;;;14.20;99.90;;;;;;5024764;28;20110;-68
2022/04/17 09:29:28;;;;;;;8.18;5.38;;;14.40;99.90;;;;;;5031677;28;20056;-68
2022/04/17 09:32:03;;;;;;;12.32;5.18;;;14.40;99.90;;;;;;5033097;28;20037;-68
2022/04/17 09:34:49;;;;;;;9.57;5.60;;;14.40;99.90;;;;;;5033606;28;20048;-68
2022/04/17 09:37:19;;;;;;;10.00;5.93;;;14.50;99.90;;;;;;5031520;28;20017;-70
2022/04/17 09:39:46;;;;;;;8.23;5.38;;;14.70;99.90;;;;;;5026809;28;20033;-68
2022/04/17 09:42:12;;;;;;;7.13;5.05;;;14.80;99.90;;;;;;5013311;28;20040;-69
2022/04/17 09:44:46;;;;;;;8.02;5.60;;;14.90;99.90;;;;;;5013916;28;20026;-68
2022/04/17 09:47:21;;;;;;;10.13;5.25;;;14.90;99.90;;;;;;5029196;28;20029;-68
2022/04/17 09:50:05;;;;;;;10.70;5.70;;;14.70;99.30;;;;;;5030033;28;20125;-68
2022/04/17 09:52:45;;;;;;;10.25;6.18;;;14.80;99.90;;;;;;5022370;28;20041;-68
2022/04/17 09:55:11;;;;;;;12.68;5.70;;;15.00;99.90;;;;;;5033437;28;20029;-69
2022/04/17 09:57:39;;;;;;;8.60;5.53;;;15.20;99.90;;;;;;5032633;28;20030;-67
2022/04/17 10:00:16;;;;;;;9.10;5.90;;;15.30;98.30;;;;;;5016885;28;20030;-68
2022/04/17 10:02:43;;;;;;;11.35;6.00;;;15.30;99.70;;;;;;5013473;28;20034;-68
2022/04/17 10:05:11;;;;;;;9.32;6.63;;;15.30;99.90;;;;;;5013713;28;20490;-68
2022/04/17 10:07:38;;;;;;;11.55;5.68;;;15.30;98.50;;;;;;5022513;28;20387;-68
2022/04/17 10:10:08;;;;;;;11.00;5.97;;;15.10;98.00;;;;;;5033493;28;20386;-68
2022/04/17 10:12:38;;;;;;;10.48;6.13;;;15.30;99.90;;;;;;5019813;28;20120;-67
2022/04/17 10:15:06;;;;;;;8.98;6.00;;;15.80;99.90;;;;;;5013788;28;20116;-68
2022/04/17 10:17:36;;;;;;;8.25;5.60;;;15.70;98.00;;;;;;5012992;28;20106;-68
2022/04/17 10:20:06;;;;;;;8.93;6.10;;;15.80;99.90;;;;;;5013505;28;20080;-68
2022/04/17 10:22:34;;;;;;;10.32;5.65;;;16.10;99.90;;;;;;5017269;28;20108;-68
2022/04/17 10:25:02;;;;;;;9.32;6.03;;;16.10;97.00;;;;;;5022300;28;20017;-69
2022/04/17 10:27:35;;;;;;;12.50;5.97;;;16.30;99.50;;;;;;5033043;28;20030;-69
2022/04/17 10:30:01;;;;;;;;;;;16.60;99.90;;;;;;5033013;28;20037;-69
2022/04/17 10:32:32;;;;;;;12.20;7.00;;;16.90;97.30;;;;;;5033367;28;19932;-69
2022/04/17 10:35:17;;;;;;;9.95;6.07;;;17.00;98.80;;;;;;5035845;28;20025;-69
2022/04/17 10:38:18;;;;;;;10.70;6.38;;;17.20;99.30;;;;;;5036791;28;20021;-69
2022/04/17 10:40:59;;;;;;;14.05;6.90;;;17.50;99.50;;;;;;5037447;28;20054;-70
2022/04/17 10:43:44;;;;;;;9.88;6.38;;;17.70;99.40;;;;;;5037208;28;20025;-69
2022/04/17 10:46:12;;;;;;;10.98;5.97;;;18.00;99.90;;;;;;5036144;28;20061;-69
2022/04/17 10:48:45;;;;;;;9.43;6.47;;;17.90;95.50;;;;;;5037036;28;20056;-68
2022/04/17 10:51:16;;;;;;;11.90;7.25;;;17.70;95.50;;;;;;5035379;28;20045;-68
2022/04/17 10:54:00;;;;;;;11.52;6.93;;;17.30;94.40;;;;;;5022870;28;20042;-67
2022/04/17 10:56:26;;;;;;;9.23;6.10;;;17.10;95.50;;;;;;5017488;28;20037;-67
2022/04/17 10:58:54;;;;;;;8.27;5.72;;;17.10;93.80;;;;;;5021135;28;20107;-67
2022/04/17 11:01:41;;;;;;;7.78;4.95;;;17.50;97.20;;;;;;5030439;28;20029;-68
2022/04/17 11:04:17;;;;;;;11.77;6.13;;;17.20;87.50;;;;;;5033931;28;20449;-68
2022/04/17 11:06:43;;;;;;;16.73;5.68;;;16.90;90.10;;;;;;5036105;28;20026;-68
2022/04/17 11:09:12;;;;;;;8.80;5.88;;;17.50;92.90;;;;;;5035849;28;20022;-68
2022/04/17 11:11:39;;;;;;;8.00;5.45;;;18.00;94.30;;;;;;5036386;28;20484;-66
2022/04/17 11:14:18;;;;;;;7.05;5.10;;;18.60;91.20;;;;;;5018342;28;20073;-67
2022/04/17 11:17:03;;;;;;;9.07;5.30;;;18.50;80.80;;;;;;5026248;28;20041;-67
2022/04/17 11:19:31;;;;;;;8.85;5.88;;;18.80;85.10;;;;;;5033585;28;20104;-67
2022/04/17 11:22:00;;;;;;;9.73;5.75;;;18.20;78.10;;;;;;5016992;28;20052;-66
2022/04/17 11:24:27;;;;;;;9.10;5.32;;;18.00;86.50;;;;;;5015775;28;20044;-66
2022/04/17 11:26:53;;;;;;;7.68;4.40;;;18.40;86.00;;;;;;5016348;28;20474;-66
2022/04/17 11:29:38;;;;;;;7.07;4.72;;;18.50;75.00;;;;;;5015818;28;20041;-67
2022/04/17 11:32:19;;;;;;;7.15;4.97;;;18.60;86.30;;;;;;5016300;28;20037;-67
2022/04/17 11:34:52;;;;;;;6.75;4.60;;;18.70;78.40;;;;;;5015800;28;20056;-66
2022/04/17 11:37:21;;;;;;;7.18;5.20;;;18.50;77.70;;;;;;5016534;28;20056;-66
2022/04/17 11:39:48;;;;;;;9.23;5.97;;;18.40;79.50;;;;;;5016162;28;20509;-67
2022/04/17 11:42:13;;;;;;;7.53;5.75;;;18.30;80.10;;;;;;5015574;28;20046;-67
2022/04/17 11:44:43;;;;;;;9.75;6.35;;;18.50;83.00;;;;;;5014877;28;20525;-66
2022/04/17 11:47:18;;;;;;;7.22;5.80;;;18.40;76.90;;;;;;5016034;28;20053;-66
2022/04/17 11:49:45;;;;;;;9.00;5.90;;;18.40;84.20;;;;;;5016345;28;20034;-67
2022/04/17 11:52:20;;;;;;;6.03;4.60;;;19.20;90.00;;;;;;5016177;28;20030;-67
2022/04/17 11:54:47;;;;;;;6.80;4.80;;;19.90;78.60;;;;;;5015702;28;20029;-67
2022/04/17 11:57:13;;;;;;;7.13;5.15;;;20.40;79.70;;;;;;5015911;28;20025;-67
2022/04/17 11:59:57;;;;;;;6.45;4.53;;;20.90;80.80;;;;;;5015884;28;20505;-67
2022/04/17 12:02:27;;;;;;;8.65;5.10;;;21.30;75.20;;;;;;5016318;28;20029;-67
2022/04/17 12:04:56;;;;;;;8.77;5.45;;;21.20;74.10;;;;;;5016059;28;20030;-67
2022/04/17 12:07:23;;;;;;;8.52;5.00;;;21.80;79.50;;;;;;5015225;28;20022;-67
2022/04/17 12:09:49;;;;;;;10.43;5.57;;;22.30;75.60;;;;;;5016335;28;20061;-67
2022/04/17 12:12:19;;;;;;;5.63;4.63;;;22.30;76.80;;;;;;5015638;28;20025;-67
2022/04/17 12:14:52;;;;;;;8.40;5.38;;;22.80;65.50;;;;;;5015778;28;20080;-67
2022/04/17 12:17:20;;;;;;;8.52;5.50;;;22.60;65.40;;;;;;5015122;28;20056;-67
2022/04/17 12:19:50;;;;;;;14.25;6.25;;;22.20;68.00;;;;;;5015810;28;20080;-67
2022/04/17 12:22:18;;;;;;;8.95;5.90;;;21.70;64.80;;;;;;5015362;28;20156;-67
2022/04/17 12:24:44;;;;;;;10.98;4.97;;;21.60;66.70;;;;;;5015285;28;20022;-67
2022/04/17 12:27:13;;;;;;;5.85;4.47;;;22.10;71.40;;;;;;5014835;28;20026;-67
2022/04/17 12:29:42;;;;;;;12.50;4.43;;;22.60;69.10;;;;;;5015442;28;20045;-68
2022/04/17 12:32:15;;;;;;;8.77;4.78;;;23.60;71.50;;;;;;5015466;28;20509;-67
2022/04/17 12:34:45;;;;;;;7.38;5.45;;;24.20;66.70;;;;;;5015439;28;20108;-67
2022/04/17 12:37:21;;;;;;;6.00;4.13;;;24.60;65.60;;;;;;5015576;28;20026;-67
2022/04/17 12:39:46;;;;;;;5.65;4.32;;;25.00;60.20;;;;;;5014575;28;20022;-68
2022/04/17 12:42:16;;;;;;;8.15;5.00;;;25.30;60.60;;;;;;5015052;28;20109;-67
2022/04/17 12:44:42;;;;;;;7.15;4.75;;;24.90;54.20;;;;;;5015238;28;20497;-67
2022/04/17 12:47:12;;;;;;;6.10;4.45;;;25.00;54.20;;;;;;5014955;28;20022;-67
2022/04/17 12:49:39;;;;;;;7.88;4.53;;;25.00;53.40;;;;;;5014442;28;20029;-68
2022/04/17 12:52:05;;;;;;;7.78;4.53;;;25.50;55.00;;;;;;5015050;28;20026;-68
2022/04/17 12:54:35;;;;;;;9.07;4.63;;;25.30;51.30;;;;;;5014642;28;20033;-68
2022/04/17 12:57:13;;;;;;;9.30;4.70;;;25.60;52.90;;;;;;5014459;28;20022;-68